Terminal Aerodrome Forecast
Issued by NWS

Home | Current Version | Previous Version | Graphics & Text | Print | Product List | Glossary On
Versions: 1 2 3 4 5 6 7 8 9 10 11 12 13 14 15 16 17 18 19 20 21 22 23 24 25 26 27 28 29 30 31 32 33 34 35 36 37 38 39 40 41 42
000
FTUS45 KBOU 280318 AAA
TAFAPA
TAF AMD
KAPA 280318Z 2803/2824 18008KT P6SM VCTS FEW080CB BKN140
     FM280500 19008KT P6SM FEW100 SCT200
     FM281500 VRB05KT P6SM SCT080 BKN110
     FM282100 11008KT P6SM SCT050 BKN090
      TEMPO 2821/2824 VRB15G30KT -TSRA BKN070CB=

USA.gov is the U.S. government's official web portal to all federal, state and local government web resources and services.